Altavista, Virginia
Current Conditions -  °F | °C
As of 1:15 PM on Monday 26 Jan 2015 (Local Time) from K0V4 Reporting Station
Overcast Overcast  
Wind Chill: 38°   Ceiling: 500
Heat Index: 43°   Visibility: 7mi
Dew Point: 42°   Wind: 8mph
Humidity: 96%   Direction: 20°NNE
Pressure: 29.64"   Gusts: NA
Location:  37.11°N, 79.29°W
Report Text: K0V4 261815Z AUTO 02007KT 7SM OVC005 06/05 A2964 RMK AO1 T00600054
Loading
Personal Weather Stations






























Interactive Weather Map New forecast layout! Learn more

10-Day Weather Forecast

Advertisements
Track Severe Weather on mobile